Time;durP1;ratioP1;P1;durP2;ratioP2;P2;SDS_P1;SDS_P2;PMS_P1;PMS_P2;Temp;Humidity;BMP_temperature;BMP_pressure;BME280_temperature;BME280_humidity;BME280_pressure;Samples;Min_cycle;Max_cycle;Signal;HPM_P1;HPM_P2
2023/09/19 00:00:47;;;;;;;1.95;0.50;;;21.30;62.50;;;;;;5031181;28;20076;-72
2023/09/19 00:03:13;;;;;;;1.05;0.70;;;21.20;62.40;;;;;;5032729;28;20033;-72
2023/09/19 00:05:39;;;;;;;;;;;21.20;62.50;;;;;;5031753;28;20379;-72
2023/09/19 00:08:05;;;;;;;0.75;0.68;;;21.20;61.70;;;;;;5031709;28;19921;-72
2023/09/19 00:10:36;;;;;;;1.08;0.63;;;21.20;62.60;;;;;;5031661;28;20040;-72
2023/09/19 00:13:07;;;;;;;1.75;1.30;;;21.10;62.90;;;;;;5031636;28;20037;-72
2023/09/19 00:15:41;;;;;;;1.17;0.47;;;21.10;62.40;;;;;;5032155;28;20029;-72
2023/09/19 00:18:08;;;;;;;2.47;1.58;;;21.10;63.00;;;;;;5031579;28;20088;-72
2023/09/19 00:20:57;;;;;;;1.08;0.73;;;21.00;63.30;;;;;;5030301;28;20037;-72
2023/09/19 00:23:24;;;;;;;15.98;1.10;;;21.00;63.10;;;;;;5014970;28;20033;-72
2023/09/19 00:25:51;;;;;;;0.30;0.30;;;21.00;63.40;;;;;;5032173;28;20051;-71
2023/09/19 00:28:19;;;;;;;2.25;1.63;;;21.00;63.30;;;;;;5031325;28;20088;-72
2023/09/19 00:30:54;;;;;;;2.03;0.70;;;21.00;63.60;;;;;;5030340;28;20048;-72
2023/09/19 00:33:20;;;;;;;1.67;1.38;;;20.90;63.30;;;;;;5032633;28;20038;-72
2023/09/19 00:36:05;;;;;;;0.20;0.20;;;20.90;64.00;;;;;;5030827;28;20437;-73
2023/09/19 00:38:31;;;;;;;1.88;0.70;;;20.90;64.20;;;;;;5014669;28;20060;-72
2023/09/19 00:40:59;;;;;;;;;;;20.80;64.10;;;;;;5047181;28;20045;-72
2023/09/19 00:43:27;;;;;;;1.38;0.93;;;20.80;63.80;;;;;;5031254;28;19917;-72
2023/09/19 00:45:55;;;;;;;0.80;0.65;;;20.80;64.10;;;;;;5031938;28;20504;-72
2023/09/19 00:48:24;;;;;;;2.38;1.27;;;20.80;64.00;;;;;;5031181;28;20040;-72
2023/09/19 00:50:51;;;;;;;0.45;0.38;;;20.80;64.10;;;;;;5030144;28;20092;-72
2023/09/19 00:53:23;;;;;;;0.80;0.73;;;20.80;64.30;;;;;;5014588;28;20037;-72
2023/09/19 00:55:52;;;;;;;0.45;0.45;;;20.80;64.20;;;;;;5031445;28;20452;-72
2023/09/19 00:58:19;;;;;;;0.88;0.55;;;20.80;64.30;;;;;;5035101;28;20500;-72
2023/09/19 01:00:46;;;;;;;3.60;1.63;;;20.80;64.40;;;;;;5035198;28;20087;-73
2023/09/19 01:03:13;;;;;;;1.33;0.80;;;20.80;64.40;;;;;;5036263;28;20459;-73
2023/09/19 01:05:40;;;;;;;0.68;0.57;;;20.80;64.40;;;;;;5034491;28;20055;-72
2023/09/19 01:08:07;;;;;;;1.95;1.10;;;20.80;64.20;;;;;;5034962;28;20541;-72
2023/09/19 01:10:33;;;;;;;1.75;1.08;;;20.80;64.50;;;;;;5034879;28;20042;-72
2023/09/19 01:13:37;;;;;;;0.70;0.57;;;20.80;64.10;;;;;;5036070;28;20025;-72
2023/09/19 01:16:27;;;;;;;0.40;0.40;;;20.80;64.90;;;;;;5035553;28;20049;-72
2023/09/19 01:19:19;;;;;;;1.08;0.60;;;20.70;64.90;;;;;;5035853;28;20033;-72
2023/09/19 01:22:17;;;;;;;0.80;0.40;;;20.70;64.90;;;;;;5035179;28;20049;-72
2023/09/19 01:25:05;;;;;;;1.73;1.23;;;20.70;65.20;;;;;;5034816;28;20116;-72
2023/09/19 01:27:34;;;;;;;0.47;0.40;;;20.60;65.30;;;;;;5034200;28;20485;-73
2023/09/19 01:30:14;;;;;;;1.05;0.40;;;20.60;65.70;;;;;;5034433;28;20579;-72
2023/09/19 01:32:42;;;;;;;0.38;0.30;;;20.60;65.70;;;;;;5034216;28;20080;-72
2023/09/19 01:35:13;;;;;;;2.08;0.98;;;20.60;65.60;;;;;;5034043;28;20064;-71
2023/09/19 01:37:39;;;;;;;1.05;0.95;;;20.60;65.50;;;;;;5035603;28;20033;-72
2023/09/19 01:40:11;;;;;;;;;;;20.60;65.40;;;;;;5033978;28;20083;-73
2023/09/19 01:43:33;;;;;;;0.77;0.75;;;20.70;65.10;;;;;;5035591;28;19913;-72
2023/09/19 01:46:40;;;;;;;1.42;1.00;;;20.70;65.00;;;;;;5034921;28;20469;-72
2023/09/19 01:49:46;;;;;;;0.93;0.80;;;20.60;65.20;;;;;;5017975;28;20064;-72
2023/09/19 01:52:36;;;;;;;1.10;0.50;;;20.60;65.40;;;;;;5034655;28;20038;-72
2023/09/19 01:55:42;;;;;;;1.50;0.75;;;20.70;65.30;;;;;;5033870;28;20076;-72
2023/09/19 01:58:22;;;;;;;0.40;0.40;;;20.70;65.30;;;;;;5034053;28;20038;-72
2023/09/19 02:03:37;;;;;;;0.93;0.47;;;20.80;65.30;;;;;;5034052;28;20056;-72
2023/09/19 02:06:05;;;;;;;1.05;0.40;;;20.80;65.40;;;;;;5033489;28;20079;-72
2023/09/19 02:08:34;;;;;;;4.43;1.10;;;20.80;64.90;;;;;;5033161;28;20049;-72
2023/09/19 02:11:00;;;;;;;1.10;0.90;;;20.80;65.70;;;;;;5032937;28;20574;-71
2023/09/19 02:13:27;;;;;;;;;;;20.70;65.70;;;;;;5034182;28;20438;-72
2023/09/19 02:15:54;;;;;;;0.45;0.30;;;20.80;65.70;;;;;;5033200;28;19913;-73
2023/09/19 02:18:20;;;;;;;5.03;1.15;;;20.70;65.70;;;;;;5033616;28;20042;-73
2023/09/19 02:20:46;;;;;;;;;;;20.80;65.60;;;;;;5032854;28;20053;-73
2023/09/19 02:23:13;;;;;;;0.73;0.70;;;20.80;65.40;;;;;;5033417;28;19917;-72
2023/09/19 02:25:40;;;;;;;1.15;0.52;;;20.80;65.70;;;;;;5033019;28;20364;-73
2023/09/19 02:28:09;;;;;;;1.70;1.40;;;20.80;66.00;;;;;;5034592;28;20037;-73
2023/09/19 02:30:36;;;;;;;1.10;0.77;;;20.80;66.00;;;;;;5032159;28;20116;-72
2023/09/19 02:33:03;;;;;;;2.42;0.77;;;20.70;66.00;;;;;;5033432;28;20037;-72
2023/09/19 02:35:32;;;;;;;0.68;0.40;;;20.70;65.60;;;;;;5033982;28;20033;-72
2023/09/19 02:37:59;;;;;;;1.13;1.02;;;20.80;66.30;;;;;;5034457;28;20397;-72
2023/09/19 02:40:26;;;;;;;3.50;1.38;;;20.80;66.40;;;;;;5033186;28;20394;-71
2023/09/19 02:43:11;;;;;;;1.63;1.05;;;20.80;66.30;;;;;;5034399;28;20415;-72
2023/09/19 02:45:37;;;;;;;2.08;1.23;;;20.80;66.40;;;;;;5033862;28;20037;-72
2023/09/19 02:48:04;;;;;;;;;;;20.80;66.60;;;;;;5017025;28;20061;-72
2023/09/19 02:50:30;;;;;;;21.08;0.77;;;20.80;65.70;;;;;;5033369;28;19925;-72
2023/09/19 02:52:56;;;;;;;;;;;20.80;66.50;;;;;;5034642;28;20509;-71
2023/09/19 02:55:22;;;;;;;2.88;0.85;;;20.70;66.40;;;;;;5033519;28;19917;-72
2023/09/19 02:58:14;;;;;;;0.60;0.47;;;20.70;66.90;;;;;;5032873;28;20434;-72
2023/09/19 03:00:47;;;;;;;0.40;0.40;;;20.60;67.20;;;;;;5031932;28;20121;-72
2023/09/19 03:03:15;;;;;;;1.45;0.70;;;20.60;67.20;;;;;;5032728;28;20068;-72
2023/09/19 03:05:46;;;;;;;0.70;0.50;;;20.60;67.40;;;;;;5032356;28;20026;-72
2023/09/19 03:08:17;;;;;;;1.05;0.60;;;20.60;67.50;;;;;;5033913;28;20120;-72
2023/09/19 03:10:44;;;;;;;0.57;0.50;;;20.60;67.50;;;;;;5031748;28;20398;-72
2023/09/19 03:13:10;;;;;;;1.88;1.10;;;20.60;67.60;;;;;;5032396;28;20033;-73
2023/09/19 03:15:40;;;;;;;1.02;0.60;;;20.60;67.60;;;;;;5032104;28;20437;-72
2023/09/19 03:18:06;;;;;;;0.95;0.60;;;20.60;67.80;;;;;;5032506;28;20048;-72
2023/09/19 03:20:32;;;;;;;;;;;20.50;67.80;;;;;;5032154;28;20493;-71
2023/09/19 03:22:58;;;;;;;0.50;0.45;;;20.50;68.00;;;;;;5033977;28;20281;-71
2023/09/19 03:25:24;;;;;;;;;;;20.50;68.10;;;;;;5032328;28;20393;-72
2023/09/19 03:27:50;;;;;;;1.00;0.73;;;20.50;68.10;;;;;;5033670;28;19960;-72
2023/09/19 03:30:16;;;;;;;;;;;20.40;68.00;;;;;;5033213;28;20375;-71
2023/09/19 03:33:01;;;;;;;0.73;0.63;;;20.40;68.00;;;;;;5033498;28;19958;-71
2023/09/19 03:35:27;;;;;;;0.95;0.60;;;20.40;68.20;;;;;;5032748;28;20029;-72
2023/09/19 03:37:53;;;;;;;;;;;20.40;68.50;;;;;;5032732;28;20044;-71
2023/09/19 03:40:21;;;;;;;2.40;1.85;;;20.30;68.30;;;;;;5032388;28;19921;-72
2023/09/19 03:42:48;;;;;;;0.20;0.20;;;20.30;68.60;;;;;;5033192;28;20482;-73
2023/09/19 03:45:14;;;;;;;0.75;0.63;;;20.30;68.80;;;;;;5031340;28;20041;-72
2023/09/19 03:47:40;;;;;;;0.70;0.50;;;20.30;68.70;;;;;;5032047;28;20104;-72
2023/09/19 03:50:08;;;;;;;3.83;1.27;;;20.30;68.70;;;;;;5031189;28;20080;-72
2023/09/19 03:52:34;;;;;;;2.10;0.93;;;20.20;68.10;;;;;;5031793;28;20025;-72
2023/09/19 03:55:02;;;;;;;0.20;0.20;;;20.30;68.90;;;;;;5032985;28;20071;-72
2023/09/19 03:57:28;;;;;;;1.48;0.90;;;20.10;69.10;;;;;;5032700;28;20033;-72
2023/09/19 03:59:55;;;;;;;1.08;0.93;;;20.10;69.20;;;;;;5032183;28;20487;-72
2023/09/19 04:02:22;;;;;;;3.05;0.70;;;20.00;69.40;;;;;;5031198;28;20037;-72
2023/09/19 04:05:07;;;;;;;1.17;0.40;;;19.90;68.90;;;;;;5030722;28;20510;-72
2023/09/19 04:07:34;;;;;;;0.38;0.30;;;20.00;69.00;;;;;;5030727;28;20029;-72
2023/09/19 04:10:00;;;;;;;2.65;0.95;;;19.90;69.60;;;;;;5030749;28;20109;-73
2023/09/19 04:12:26;;;;;;;0.98;0.75;;;19.90;69.80;;;;;;5029680;28;20510;-73
2023/09/19 04:14:52;;;;;;;;;;;19.80;70.30;;;;;;5031214;28;20065;-72
2023/09/19 04:17:18;;;;;;;0.32;0.32;;;19.80;69.90;;;;;;5031486;28;20381;-72
2023/09/19 04:19:45;;;;;;;0.70;0.60;;;19.80;70.00;;;;;;5030709;28;20052;-72
2023/09/19 04:22:12;;;;;;;1.73;0.82;;;19.80;70.20;;;;;;5029573;28;20530;-72
2023/09/19 04:24:39;;;;;;;1.35;0.47;;;19.80;70.00;;;;;;5031930;28;20048;-72
2023/09/19 04:27:06;;;;;;;0.55;0.40;;;19.80;70.20;;;;;;5031510;28;20053;-73
2023/09/19 04:29:32;;;;;;;1.70;0.70;;;19.80;69.50;;;;;;5030707;28;20057;-72
2023/09/19 04:31:58;;;;;;;1.25;0.68;;;19.80;70.10;;;;;;5013158;28;20134;-72
2023/09/19 04:34:25;;;;;;;;;;;19.80;70.20;;;;;;5031100;28;20042;-73
2023/09/19 04:36:52;;;;;;;0.90;0.67;;;19.80;70.00;;;;;;5030228;28;19917;-72
2023/09/19 04:39:18;;;;;;;1.17;0.73;;;19.80;70.10;;;;;;5031971;28;20041;-73
2023/09/19 04:41:45;;;;;;;;;;;19.70;70.40;;;;;;5030128;28;20119;-72
2023/09/19 04:44:13;;;;;;;0.57;0.52;;;19.70;70.30;;;;;;5031351;28;19925;-72
2023/09/19 04:46:39;;;;;;;0.45;0.40;;;19.70;70.30;;;;;;5029983;28;20588;-72
2023/09/19 04:49:05;;;;;;;5.22;1.23;;;19.70;70.50;;;;;;5030411;28;20050;-72
2023/09/19 04:51:34;;;;;;;;;;;19.70;70.90;;;;;;5031185;28;20046;-72
2023/09/19 04:54:01;;;;;;;1.27;0.65;;;19.60;70.40;;;;;;5031887;28;19947;-72
2023/09/19 04:56:28;;;;;;;0.63;0.55;;;19.60;70.40;;;;;;5031254;28;20483;-72
2023/09/19 04:58:54;;;;;;;1.25;0.80;;;19.60;70.60;;;;;;5030423;28;20049;-72
2023/09/19 05:01:22;;;;;;;0.82;0.57;;;19.60;70.60;;;;;;5029260;28;20049;-73
2023/09/19 05:03:52;;;;;;;0.90;0.47;;;19.60;70.70;;;;;;5030249;28;20042;-72
2023/09/19 05:06:23;;;;;;;1.52;1.42;;;19.60;70.60;;;;;;5029996;28;20033;-72
2023/09/19 05:08:51;;;;;;;1.05;0.65;;;19.50;70.80;;;;;;5030286;28;20038;-71
2023/09/19 05:11:37;;;;;;;1.05;0.60;;;19.60;70.80;;;;;;5029578;28;20038;-72
2023/09/19 05:14:03;;;;;;;1.75;0.90;;;19.60;70.90;;;;;;5031786;28;20037;-72
2023/09/19 05:16:34;;;;;;;0.63;0.57;;;19.60;70.70;;;;;;5031184;28;20099;-72
2023/09/19 05:19:00;;;;;;;1.10;0.60;;;19.60;70.40;;;;;;5029898;28;20044;-72
2023/09/19 05:21:28;;;;;;;;;;;19.60;71.10;;;;;;5030952;28;20041;-72
2023/09/19 05:23:56;;;;;;;2.20;1.15;;;19.70;70.70;;;;;;5031626;28;19983;-73
2023/09/19 05:26:22;;;;;;;0.32;0.32;;;19.70;70.30;;;;;;5030755;28;20029;-73
2023/09/19 05:28:48;;;;;;;;;;;19.70;71.20;;;;;;5030515;28;20067;-72
2023/09/19 05:31:15;;;;;;;1.00;0.60;;;19.70;71.20;;;;;;5030307;28;20426;-72
2023/09/19 05:33:42;;;;;;;6.13;0.95;;;19.70;71.50;;;;;;5029982;28;20046;-72
2023/09/19 05:36:10;;;;;;;2.85;1.50;;;19.70;71.70;;;;;;5029503;28;20021;-71
2023/09/19 05:38:36;;;;;;;2.05;0.90;;;19.80;71.80;;;;;;5029831;28;20045;-73
2023/09/19 05:41:03;;;;;;;0.75;0.75;;;19.80;71.90;;;;;;5028816;28;20052;-72
2023/09/19 05:43:28;;;;;;;;;;;19.90;72.30;;;;;;5033258;28;20037;-72
2023/09/19 05:45:56;;;;;;;1.30;0.60;;;20.00;71.70;;;;;;5034414;28;19959;-72
2023/09/19 05:48:22;;;;;;;1.50;0.90;;;20.10;71.80;;;;;;5034628;28;20052;-72
2023/09/19 05:50:49;;;;;;;1.30;0.60;;;20.20;71.50;;;;;;5033403;28;20037;-72
2023/09/19 05:53:15;;;;;;;0.75;0.45;;;20.30;71.80;;;;;;5034472;28;20071;-73
2023/09/19 05:55:42;;;;;;;0.65;0.50;;;20.40;71.20;;;;;;5032459;28;20060;-73
2023/09/19 05:58:09;;;;;;;1.10;0.65;;;20.50;71.60;;;;;;5032962;28;20125;-72
2023/09/19 06:00:36;;;;;;;0.38;0.38;;;20.50;71.70;;;;;;5033085;28;20037;-73
2023/09/19 06:03:02;;;;;;;1.15;0.77;;;20.60;71.70;;;;;;5034087;28;20034;-73
2023/09/19 06:05:31;;;;;;;0.75;0.35;;;20.70;71.60;;;;;;5033552;28;20041;-72
2023/09/19 06:08:00;;;;;;;0.35;0.35;;;20.80;71.60;;;;;;5032771;28;20038;-72
2023/09/19 06:10:28;;;;;;;0.45;0.30;;;20.80;71.40;;;;;;5031848;28;20041;-73
2023/09/19 06:15:40;;;;;;;0.52;0.43;;;21.00;70.40;;;;;;5032498;28;20048;-72
2023/09/19 06:18:15;;;;;;;0.55;0.55;;;21.20;72.00;;;;;;5033962;28;20495;-72
2023/09/19 06:20:44;;;;;;;0.60;0.50;;;21.30;71.50;;;;;;5031685;28;20045;-72
2023/09/19 06:23:10;;;;;;;1.35;0.73;;;21.40;71.30;;;;;;5032716;28;20450;-73
2023/09/19 06:25:36;;;;;;;;;;;21.50;71.10;;;;;;5033820;28;20041;-73
2023/09/19 06:28:05;;;;;;;0.45;0.45;;;21.60;70.90;;;;;;5032473;28;20028;-73
2023/09/19 06:30:32;;;;;;;1.88;1.52;;;21.60;70.20;;;;;;5031296;28;20060;-72
2023/09/19 06:33:00;;;;;;;1.00;0.60;;;21.50;70.30;;;;;;5033614;28;20423;-73
2023/09/19 06:35:27;;;;;;;13.75;1.30;;;21.50;69.70;;;;;;5033103;28;20033;-73
2023/09/19 06:37:53;;;;;;;5.93;0.82;;;21.60;69.30;;;;;;5015806;28;20025;-72
2023/09/19 06:40:19;;;;;;;0.77;0.73;;;21.60;70.10;;;;;;5032310;28;20448;-73
2023/09/19 06:43:05;;;;;;;1.63;1.33;;;21.60;69.00;;;;;;5033511;28;20479;-72
2023/09/19 06:45:31;;;;;;;0.20;0.20;;;21.60;68.50;;;;;;5031655;28;20455;-72
2023/09/19 06:47:59;;;;;;;1.35;0.77;;;21.60;67.90;;;;;;5033405;28;20033;-72
2023/09/19 06:50:26;;;;;;;0.30;0.30;;;21.60;67.50;;;;;;5031016;28;20045;-72
2023/09/19 06:52:55;;;;;;;1.02;0.85;;;21.70;67.10;;;;;;5033262;28;20025;-73
2023/09/19 06:55:25;;;;;;;6.63;1.30;;;21.70;66.40;;;;;;5014868;28;20479;-72
2023/09/19 06:57:51;;;;;;;0.47;0.40;;;21.80;65.20;;;;;;5032051;28;20029;-73
2023/09/19 07:03:10;;;;;;;0.93;0.40;;;21.90;63.60;;;;;;5033250;28;20072;-72
2023/09/19 07:05:37;;;;;;;0.73;0.73;;;22.00;62.80;;;;;;5031300;28;20491;-73
2023/09/19 07:08:04;;;;;;;0.28;0.28;;;22.10;61.80;;;;;;5031851;28;20034;-73
2023/09/19 07:10:32;;;;;;;0.10;0.10;;;22.10;60.50;;;;;;5030529;28;20041;-73
2023/09/19 07:13:17;;;;;;;0.22;0.20;;;22.20;61.00;;;;;;5031739;28;20041;-72
2023/09/19 07:18:28;;;;;;;0.10;0.10;;;22.40;59.80;;;;;;5031760;28;20052;-72
2023/09/19 07:21:04;;;;;;;0.10;0.10;;;22.50;59.20;;;;;;5030274;28;20117;-73
2023/09/19 07:23:34;;;;;;;0.10;0.10;;;22.70;58.80;;;;;;5031728;28;20034;-73
2023/09/19 07:26:02;;;;;;;0.20;0.20;;;23.00;58.20;;;;;;5032328;28;20033;-73
2023/09/19 07:28:28;;;;;;;0.10;0.10;;;23.40;56.20;;;;;;5032771;28;20116;-73
2023/09/19 07:30:54;;;;;;;0.10;0.10;;;23.80;55.90;;;;;;5031648;28;20081;-73
2023/09/19 07:33:20;;;;;;;0.10;0.10;;;24.60;53.40;;;;;;5032560;28;20156;-73
2023/09/19 07:35:47;;;;;;;1.98;0.60;;;25.50;50.60;;;;;;5030789;28;20044;-73
2023/09/19 07:38:14;;;;;;;0.15;0.10;;;25.70;49.60;;;;;;5032321;28;20112;-73
2023/09/19 07:40:40;;;;;;;0.63;0.40;;;25.80;48.80;;;;;;5030180;28;20041;-73
2023/09/19 07:43:06;;;;;;;0.10;0.10;;;25.70;49.00;;;;;;5032464;28;20080;-73
2023/09/19 07:45:32;;;;;;;0.45;0.45;;;25.60;48.90;;;;;;5031657;28;20426;-73
2023/09/19 07:48:03;;;;;;;0.45;0.45;;;25.40;48.90;;;;;;5031454;28;20056;-73
2023/09/19 07:50:30;;;;;;;0.10;0.10;;;25.20;49.10;;;;;;5031576;28;20116;-73
2023/09/19 07:52:56;;;;;;;3.85;0.75;;;24.90;49.60;;;;;;5031160;28;20045;-73
2023/09/19 07:55:25;;;;;;;0.30;0.30;;;24.50;54.00;;;;;;5031712;28;20037;-73
2023/09/19 07:57:52;;;;;;;1.17;0.50;;;23.80;57.10;;;;;;5030924;28;20037;-72
2023/09/19 08:00:18;;;;;;;0.13;0.10;;;23.50;59.40;;;;;;5029859;28;20116;-72
2023/09/19 08:02:45;;;;;;;0.10;0.10;;;23.30;60.00;;;;;;5031009;28;20029;-73
2023/09/19 08:05:15;;;;;;;0.30;0.30;;;23.10;60.60;;;;;;5031259;28;20045;-73
2023/09/19 08:07:45;;;;;;;1.35;0.73;;;23.00;61.00;;;;;;5031961;28;20045;-72
2023/09/19 08:10:15;;;;;;;0.20;0.20;;;22.90;61.70;;;;;;5029947;28;20042;-72
2023/09/19 08:12:46;;;;;;;0.95;0.60;;;22.90;62.30;;;;;;5032380;28;20032;-73
2023/09/19 08:15:32;;;;;;;0.30;0.30;;;23.00;62.10;;;;;;5030077;28;20063;-72
2023/09/19 08:17:58;;;;;;;0.40;0.30;;;24.60;59.50;;;;;;5030754;28;20037;-72
2023/09/19 08:20:24;;;;;;;;;;;25.30;56.40;;;;;;5031378;28;20399;-72
2023/09/19 08:25:38;;;;;;;0.10;0.10;;;25.80;54.50;;;;;;5030898;28;20426;-72
2023/09/19 08:28:08;;;;;;;0.20;0.20;;;25.50;55.60;;;;;;5031942;28;20545;-72
2023/09/19 08:30:34;;;;;;;0.10;0.10;;;25.30;55.40;;;;;;5013525;28;20543;-73
2023/09/19 08:33:01;;;;;;;0.10;0.10;;;26.40;54.60;;;;;;5032064;28;20513;-72
2023/09/19 08:35:28;;;;;;;1.05;0.50;;;26.80;52.60;;;;;;5031243;28;20038;-73
2023/09/19 08:37:55;;;;;;;0.20;0.20;;;26.20;53.70;;;;;;5031851;28;20037;-73
2023/09/19 08:40:22;;;;;;;1.13;0.77;;;25.80;53.90;;;;;;5030644;28;20037;-73
2023/09/19 08:43:08;;;;;;;0.10;0.10;;;25.50;53.90;;;;;;5030549;28;20037;-72
2023/09/19 08:45:34;;;;;;;0.20;0.20;;;25.20;55.10;;;;;;5030102;28;20068;-72
2023/09/19 08:48:29;;;;;;;0.10;0.10;;;25.00;56.00;;;;;;5030544;28;20096;-72
2023/09/19 08:51:33;;;;;;;0.30;0.30;;;24.70;56.30;;;;;;5030555;28;20046;-72
2023/09/19 08:54:41;;;;;;;0.22;0.22;;;24.30;57.00;;;;;;5031843;28;20061;-72
2023/09/19 08:57:10;;;;;;;0.37;0.37;;;24.00;57.70;;;;;;5030045;28;20398;-72
2023/09/19 08:59:40;;;;;;;0.73;0.70;;;23.70;58.50;;;;;;5030393;28;20390;-72
2023/09/19 09:02:12;;;;;;;0.20;0.20;;;23.50;59.30;;;;;;5029498;28;20045;-72
2023/09/19 09:04:41;;;;;;;0.32;0.32;;;23.30;60.10;;;;;;5030603;28;20066;-72
2023/09/19 09:07:28;;;;;;;0.30;0.30;;;23.20;60.70;;;;;;5029987;28;20561;-72
2023/09/19 09:09:54;;;;;;;0.28;0.20;;;23.00;60.80;;;;;;5031597;28;20033;-72
2023/09/19 09:12:21;;;;;;;0.20;0.13;;;22.90;61.30;;;;;;5029310;28;20042;-71
2023/09/19 09:14:50;;;;;;;1.08;0.30;;;22.80;62.20;;;;;;5030114;28;20091;-72
2023/09/19 09:17:20;;;;;;;0.10;0.10;;;22.70;62.50;;;;;;5029955;28;20033;-72
2023/09/19 09:19:51;;;;;;;0.17;0.10;;;22.60;62.60;;;;;;5035157;28;20076;-71
2023/09/19 09:22:18;;;;;;;0.10;0.10;;;22.50;62.40;;;;;;5032788;28;20041;-72
2023/09/19 09:28:38;;;;;;;0.30;0.30;;;22.50;63.80;;;;;;5033892;28;20041;-72
2023/09/19 09:34:13;;;;;;;0.30;0.20;;;22.40;64.20;;;;;;5035207;28;20103;-73
2023/09/19 09:36:41;;;;;;;0.90;0.43;;;22.40;64.30;;;;;;5034417;28;20438;-73
2023/09/19 09:39:24;;;;;;;0.20;0.20;;;22.30;65.00;;;;;;5033389;28;20457;-72
2023/09/19 09:41:51;;;;;;;0.13;0.13;;;22.30;65.80;;;;;;5032855;28;20033;-72
2023/09/19 09:44:19;;;;;;;0.10;0.10;;;22.20;66.40;;;;;;5033381;28;20033;-72
2023/09/19 09:52:19;;;;;;;0.38;0.30;;;22.20;67.00;;;;;;5034078;28;20042;-72
2023/09/19 09:55:08;;;;;;;0.40;0.38;;;22.20;67.20;;;;;;5033237;28;20037;-72
2023/09/19 09:57:34;;;;;;;0.30;0.30;;;22.30;67.30;;;;;;5033278;28;20391;-72
2023/09/19 10:02:40;;;;;;;0.70;0.63;;;22.40;67.40;;;;;;5033098;28;20069;-72
2023/09/19 10:08:18;;;;;;;0.38;0.38;;;22.50;67.60;;;;;;5033114;28;20104;-73
2023/09/19 10:13:32;;;;;;;1.08;0.25;;;22.60;67.70;;;;;;5034395;28;20233;-72
2023/09/19 10:16:06;;;;;;;0.28;0.20;;;22.70;68.00;;;;;;5015953;28;20472;-72
2023/09/19 10:18:36;;;;;;;0.20;0.20;;;22.90;67.90;;;;;;5016333;28;20044;-72
2023/09/19 10:21:04;;;;;;;0.22;0.22;;;23.00;67.50;;;;;;5032045;28;20103;-72
2023/09/19 10:23:34;;;;;;;0.30;0.30;;;23.00;67.20;;;;;;5032743;28;20053;-72
2023/09/19 10:26:01;;;;;;;0.28;0.28;;;23.10;66.30;;;;;;5033485;28;20057;-72
2023/09/19 10:28:30;;;;;;;1.00;0.50;;;23.20;66.70;;;;;;5032206;28;20041;-72
2023/09/19 10:30:58;;;;;;;0.52;0.40;;;23.30;66.60;;;;;;5032948;28;20121;-72
2023/09/19 10:33:29;;;;;;;0.30;0.30;;;23.40;65.90;;;;;;5033981;28;20429;-72
2023/09/19 10:35:59;;;;;;;0.30;0.30;;;23.50;66.00;;;;;;5033365;28;20512;-72
2023/09/19 10:38:28;;;;;;;0.20;0.20;;;23.50;65.80;;;;;;5032578;28;20585;-72
2023/09/19 10:40:59;;;;;;;0.70;0.40;;;23.50;65.90;;;;;;5031356;28;20136;-72
2023/09/19 10:43:46;;;;;;;1.80;1.13;;;23.50;65.90;;;;;;5032492;28;20084;-72
2023/09/19 10:46:12;;;;;;;0.80;0.30;;;23.60;65.70;;;;;;5032004;28;20454;-72
2023/09/19 10:48:40;;;;;;;0.52;0.52;;;23.70;65.80;;;;;;5015730;28;20449;-72
2023/09/19 10:51:30;;;;;;;0.52;0.52;;;23.70;65.10;;;;;;5031454;28;20375;-72
2023/09/19 10:54:17;;;;;;;0.35;0.35;;;23.70;64.90;;;;;;5016051;28;20037;-72
2023/09/19 10:56:50;;;;;;;0.45;0.40;;;23.90;64.80;;;;;;5015327;28;20071;-73
2023/09/19 10:59:21;;;;;;;0.70;0.30;;;24.20;64.30;;;;;;5032052;28;20108;-73
2023/09/19 11:02:24;;;;;;;1.70;0.88;;;24.70;63.20;;;;;;5032217;28;20296;-71
2023/09/19 11:04:51;;;;;;;1.23;0.88;;;25.30;62.60;;;;;;5033096;28;20035;-73
2023/09/19 11:07:17;;;;;;;0.63;0.60;;;25.80;59.80;;;;;;5014894;28;20148;-73
2023/09/19 11:10:04;;;;;;;0.22;0.22;;;26.30;58.80;;;;;;5033527;28;20215;-72
2023/09/19 11:15:58;;;;;;;0.32;0.32;;;26.20;58.00;;;;;;5032423;28;20055;-72
2023/09/19 11:18:43;;;;;;;0.20;0.20;;;25.80;57.90;;;;;;5032887;28;20033;-71
2023/09/19 11:21:29;;;;;;;0.13;0.13;;;25.80;58.10;;;;;;5031791;28;20319;-72
2023/09/19 11:24:27;;;;;;;1.90;0.20;;;25.90;57.50;;;;;;5033176;28;20389;-72
2023/09/19 11:27:14;;;;;;;0.20;0.20;;;26.00;57.70;;;;;;5032393;28;20444;-72
2023/09/19 11:29:41;;;;;;;0.57;0.50;;;26.10;57.30;;;;;;5031634;28;20057;-73
2023/09/19 11:32:07;;;;;;;0.30;0.30;;;26.30;56.30;;;;;;5030809;28;20084;-72
2023/09/19 11:34:52;;;;;;;0.32;0.32;;;26.40;56.20;;;;;;5031786;28;20486;-72
2023/09/19 11:37:18;;;;;;;0.38;0.38;;;26.50;56.00;;;;;;5014284;28;20037;-72
2023/09/19 11:40:22;;;;;;;0.60;0.60;;;26.40;56.00;;;;;;5032563;28;20512;-72
2023/09/19 11:46:10;;;;;;;0.40;0.30;;;25.70;55.40;;;;;;5030611;28;20075;-73
2023/09/19 11:48:40;;;;;;;0.40;0.40;;;25.60;56.30;;;;;;5032182;28;20091;-72
2023/09/19 11:51:29;;;;;;;0.43;0.40;;;25.70;56.50;;;;;;5031275;28;20092;-72
2023/09/19 11:54:00;;;;;;;1.45;1.00;;;26.20;56.20;;;;;;5031037;28;20477;-72
2023/09/19 11:56:28;;;;;;;0.17;0.17;;;26.60;55.10;;;;;;5030563;28;20433;-72
2023/09/19 11:58:56;;;;;;;0.30;0.30;;;27.40;53.10;;;;;;5031048;28;20029;-71
2023/09/19 12:01:34;;;;;;;0.20;0.20;;;28.70;50.40;;;;;;5031051;28;20140;-72
2023/09/19 12:04:04;;;;;;;1.25;0.63;;;29.40;48.30;;;;;;5030756;28;20049;-72
2023/09/19 12:06:35;;;;;;;2.95;0.98;;;30.20;45.80;;;;;;5030475;28;20033;-72
2023/09/19 12:09:06;;;;;;;0.60;0.38;;;30.10;45.30;;;;;;5030992;28;20064;-72
2023/09/19 12:11:35;;;;;;;0.20;0.20;;;29.60;45.90;;;;;;5029744;28;20072;-72
2023/09/19 12:14:03;;;;;;;0.20;0.20;;;30.40;44.40;;;;;;5032208;28;20044;-72
2023/09/19 12:16:30;;;;;;;0.20;0.20;;;30.30;44.40;;;;;;5031649;28;20052;-72
2023/09/19 12:18:57;;;;;;;0.88;0.60;;;30.30;44.60;;;;;;5030843;28;20065;-72
2023/09/19 12:21:24;;;;;;;0.30;0.30;;;30.40;43.80;;;;;;5029777;28;20072;-72
2023/09/19 12:24:29;;;;;;;0.60;0.40;;;31.20;41.70;;;;;;5032150;28;20398;-72
2023/09/19 12:27:05;;;;;;;0.50;0.50;;;31.10;40.20;;;;;;5031487;28;20103;-72
2023/09/19 12:29:45;;;;;;;0.50;0.40;;;30.70;40.90;;;;;;5014282;28;20505;-72
2023/09/19 12:32:12;;;;;;;0.40;0.40;;;30.50;40.60;;;;;;5029636;28;20038;-72
2023/09/19 12:34:42;;;;;;;0.47;0.40;;;30.70;41.10;;;;;;5014171;28;20505;-72
2023/09/19 12:37:30;;;;;;;0.20;0.20;;;30.20;39.00;;;;;;5031360;28;20038;-72
2023/09/19 12:43:02;;;;;;;6.13;2.33;;;29.60;40.00;;;;;;5030372;28;20054;-72
2023/09/19 12:45:30;;;;;;;1.10;0.50;;;29.30;41.20;;;;;;5030233;28;20033;-72
2023/09/19 12:48:34;;;;;;;0.57;0.57;;;30.00;40.70;;;;;;5030809;28;20030;-72
2023/09/19 12:51:22;;;;;;;0.68;0.22;;;30.80;39.00;;;;;;5029429;28;20037;-72
2023/09/19 12:53:58;;;;;;;0.20;0.20;;;30.20;39.60;;;;;;5034437;28;20486;-72
2023/09/19 12:56:24;;;;;;;0.30;0.30;;;30.10;39.80;;;;;;5034054;28;20076;-72
2023/09/19 12:59:13;;;;;;;0.25;0.25;;;30.50;39.30;;;;;;5035764;28;20048;-72
2023/09/19 13:01:48;;;;;;;0.30;0.30;;;31.00;38.60;;;;;;5033774;28;20064;-72
2023/09/19 13:04:34;;;;;;;0.88;0.80;;;32.10;36.60;;;;;;5034225;28;20039;-72
2023/09/19 13:07:05;;;;;;;0.63;0.40;;;34.80;32.50;;;;;;5034040;28;20120;-72
2023/09/19 13:09:38;;;;;;;0.57;0.50;;;36.10;29.20;;;;;;5034213;28;20037;-72
2023/09/19 13:12:46;;;;;;;0.40;0.40;;;35.00;30.60;;;;;;5017598;28;20088;-72
2023/09/19 13:15:19;;;;;;;0.30;0.30;;;37.60;27.90;;;;;;5034602;28;20041;-72
2023/09/19 13:18:13;;;;;;;0.30;0.30;;;40.00;25.00;;;;;;5035351;28;20096;-72
2023/09/19 13:20:44;;;;;;;0.38;0.38;;;41.00;23.20;;;;;;5032884;28;20048;-72
2023/09/19 13:23:27;;;;;;;0.32;0.32;;;41.60;21.50;;;;;;5035367;28;20048;-73
2023/09/19 13:25:53;;;;;;;0.63;0.55;;;42.50;21.20;;;;;;5033541;28;20393;-72
2023/09/19 13:28:18;;;;;;;2.50;2.25;;;43.00;20.90;;;;;;5033694;28;20037;-73
2023/09/19 13:30:46;;;;;;;1.58;1.05;;;41.60;21.90;;;;;;5032793;28;20087;-73
2023/09/19 13:33:14;;;;;;;0.60;0.60;;;41.10;22.20;;;;;;5034981;28;20030;-73
2023/09/19 13:35:40;;;;;;;0.45;0.45;;;41.10;22.30;;;;;;5033287;28;20080;-73
2023/09/19 13:38:11;;;;;;;0.50;0.50;;;41.50;21.40;;;;;;5034962;28;20072;-73
2023/09/19 13:40:41;;;;;;;0.70;0.70;;;41.10;21.60;;;;;;5033923;28;20045;-73
2023/09/19 13:43:08;;;;;;;0.70;0.70;;;40.80;21.60;;;;;;5033568;28;20125;-73
2023/09/19 13:45:34;;;;;;;0.60;0.60;;;40.70;21.70;;;;;;5016551;28;20033;-73
2023/09/19 13:48:00;;;;;;;0.70;0.70;;;40.00;22.70;;;;;;5033656;28;20485;-72
2023/09/19 13:50:28;;;;;;;1.67;1.15;;;39.80;22.40;;;;;;5032378;28;20111;-73
2023/09/19 13:52:55;;;;;;;0.52;0.52;;;40.10;22.60;;;;;;5033295;28;20112;-73
2023/09/19 13:55:21;;;;;;;0.50;0.50;;;40.60;22.20;;;;;;5032683;28;20486;-73
2023/09/19 13:58:06;;;;;;;0.60;0.60;;;40.50;21.80;;;;;;5033213;28;20092;-73
2023/09/19 14:03:18;;;;;;;1.20;1.10;;;41.00;20.90;;;;;;5032799;28;20041;-73